createdAt,value
2024-01-15T00:00:15.188Z,16.37
2024-01-15T00:01:19.215Z,14.88
2024-01-15T00:02:23.210Z,14.27
2024-01-15T00:03:27.556Z,15.18
2024-01-15T00:04:31.585Z,16.40
2024-01-15T00:05:35.479Z,15.23
2024-01-15T00:06:39.779Z,14.68
2024-01-15T00:07:43.848Z,13.98
2024-01-15T00:08:47.596Z,13.75
2024-01-15T00:09:51.357Z,15.23
2024-01-15T00:10:55.062Z,14.53
2024-01-15T00:11:58.966Z,13.95
2024-01-15T00:13:04.624Z,14.02
2024-01-15T00:14:08.417Z,14.05
2024-01-15T00:15:12.322Z,14.90
2024-01-15T00:16:16.093Z,14.33
2024-01-15T00:17:19.834Z,14.85
2024-01-15T00:18:23.710Z,13.15
2024-01-15T00:19:27.623Z,13.57
2024-01-15T00:20:31.445Z,14.88
2024-01-15T00:21:35.199Z,14.93
2024-01-15T00:22:38.960Z,14.23
2024-01-15T00:23:45.328Z,13.77
2024-01-15T00:24:49.268Z,13.32
2024-01-15T00:25:54.204Z,12.50
2024-01-15T00:26:57.949Z,14.03
2024-01-15T00:28:03.377Z,12.40
2024-01-15T00:29:08.372Z,13.38
2024-01-15T00:30:13.409Z,13.45
2024-01-15T00:31:19.296Z,12.98
2024-01-15T00:32:23.463Z,12.53
2024-01-15T00:33:27.369Z,13.63
2024-01-15T00:34:31.369Z,13.63
2024-01-15T00:35:35.193Z,13.57
2024-01-15T00:36:39.023Z,12.07
2024-01-15T00:37:42.764Z,11.83
2024-01-15T00:38:46.800Z,12.43
2024-01-15T00:39:50.476Z,12.20
2024-01-15T00:40:54.279Z,11.60
2024-01-15T00:41:58.026Z,11.95
2024-01-15T00:43:03.445Z,12.40
2024-01-15T00:44:07.145Z,12.65
2024-01-15T00:45:11.971Z,13.43
2024-01-15T00:46:15.802Z,11.40
2024-01-15T00:47:21.158Z,11.43
2024-01-15T00:48:25.109Z,13.63
2024-01-15T00:49:29.548Z,12.55
2024-01-15T00:50:33.423Z,13.38
2024-01-15T00:51:37.284Z,12.13
2024-01-15T00:52:41.023Z,11.85
2024-01-15T00:53:44.794Z,12.00
2024-01-15T00:54:48.614Z,13.00
2024-01-15T00:55:52.557Z,13.32
2024-01-15T00:56:56.256Z,12.38
2024-01-15T00:58:28.292Z,13.38
2024-01-15T00:59:32.102Z,13.90
2024-01-15T01:00:35.927Z,14.25
2024-01-15T01:01:39.721Z,13.23
2024-01-15T01:02:43.739Z,12.82
2024-01-15T01:03:47.615Z,14.05
2024-01-15T01:04:51.497Z,14.87
2024-01-15T01:05:55.329Z,14.38
2024-01-15T01:06:59.144Z,14.27
2024-01-15T01:08:03.072Z,13.30
2024-01-15T01:09:06.982Z,13.52
2024-01-15T01:10:11.254Z,13.57
2024-01-15T01:11:16.043Z,13.65
2024-01-15T01:12:19.825Z,12.98
2024-01-15T01:13:23.607Z,13.25
2024-01-15T01:14:29.042Z,13.77
2024-01-15T01:15:32.889Z,14.93
2024-01-15T01:16:36.692Z,12.95
2024-01-15T01:17:40.671Z,12.80
2024-01-15T01:18:44.942Z,12.68
2024-01-15T01:19:49.141Z,13.00
2024-01-15T01:20:53.099Z,12.73
2024-01-15T01:21:56.966Z,14.57
2024-01-15T01:23:00.798Z,13.88
2024-01-15T01:24:04.674Z,12.68
2024-01-15T01:25:09.268Z,14.25
2024-01-15T01:26:16.920Z,14.00
2024-01-15T01:27:20.744Z,12.90
2024-01-15T01:28:24.476Z,13.77
2024-01-15T01:29:29.858Z,13.70
2024-01-15T01:30:33.746Z,13.55
2024-01-15T01:31:37.695Z,13.47
2024-01-15T01:32:41.811Z,14.15
2024-01-15T01:33:45.810Z,12.40
2024-01-15T01:34:49.677Z,13.98
2024-01-15T01:35:53.561Z,12.73
2024-01-15T01:36:57.253Z,13.00
2024-01-15T01:38:00.950Z,12.50
2024-01-15T01:39:04.808Z,12.57
2024-01-15T01:40:09.797Z,12.50
2024-01-15T01:41:13.851Z,12.52
2024-01-15T01:42:17.906Z,12.03
2024-01-15T01:43:21.630Z,11.55
2024-01-15T01:44:25.356Z,11.52
2024-01-15T01:45:30.738Z,11.30
2024-01-15T01:46:35.316Z,11.27
2024-01-15T01:47:39.296Z,11.00
2024-01-15T01:48:43.152Z,10.02
2024-01-15T01:49:47.907Z,10.93
2024-01-15T01:50:51.952Z,10.27
2024-01-15T01:51:58.181Z,11.07
2024-01-15T01:53:03.256Z,11.40
2024-01-15T01:54:08.972Z,11.35
2024-01-15T01:55:13.591Z,10.50
2024-01-15T01:56:17.582Z,9.85
2024-01-15T01:57:21.640Z,9.43
2024-01-15T01:58:25.481Z,9.20
2024-01-15T01:59:30.599Z,9.50
2024-01-15T02:00:37.181Z,9.25
2024-01-15T02:01:41.487Z,9.50
2024-01-15T02:02:45.406Z,8.60
2024-01-15T02:03:49.421Z,9.27
2024-01-15T02:04:53.400Z,9.18
2024-01-15T02:05:58.157Z,8.90
2024-01-15T02:07:02.266Z,8.15
2024-01-15T02:08:06.618Z,8.05
2024-01-15T02:09:10.774Z,8.30
2024-01-15T02:10:14.559Z,8.65
2024-01-15T02:11:18.296Z,8.35
2024-01-15T02:12:22.094Z,9.00
2024-01-15T02:13:25.992Z,8.75
2024-01-15T02:14:29.857Z,7.67
2024-01-15T02:15:35.361Z,8.20
2024-01-15T02:16:39.165Z,8.10
2024-01-15T02:18:00.919Z,8.43
2024-01-15T02:19:04.834Z,8.73
2024-01-15T02:20:09.841Z,8.20
2024-01-15T02:21:13.681Z,8.45
2024-01-15T02:22:17.480Z,8.18
2024-01-15T02:23:22.960Z,7.80
2024-01-15T02:24:27.079Z,8.50
2024-01-15T02:25:30.860Z,8.37
2024-01-15T02:26:34.614Z,7.57
2024-01-15T02:27:38.707Z,7.30
2024-01-15T02:28:43.285Z,8.18
2024-01-15T02:29:47.188Z,8.45
2024-01-15T02:30:50.996Z,8.00
2024-01-15T02:31:54.971Z,8.10
2024-01-15T02:32:59.270Z,8.52
2024-01-15T02:34:03.237Z,8.43
2024-01-15T02:35:07.347Z,8.23
2024-01-15T02:36:12.761Z,8.13
2024-01-15T02:37:16.588Z,8.60
2024-01-15T02:38:22.030Z,8.05
2024-01-15T02:39:25.813Z,8.00
2024-01-15T02:40:29.600Z,8.48
2024-01-15T02:41:33.332Z,8.23
2024-01-15T02:42:37.050Z,7.60
2024-01-15T02:43:40.975Z,7.65
2024-01-15T02:44:44.642Z,7.75
2024-01-15T02:45:48.677Z,7.35
2024-01-15T02:46:52.529Z,7.63
2024-01-15T02:47:56.477Z,8.25
2024-01-15T02:49:00.424Z,7.93
2024-01-15T02:50:04.399Z,8.18
2024-01-15T02:51:08.217Z,7.38
2024-01-15T02:52:11.953Z,7.50
2024-01-15T02:53:15.746Z,7.57
2024-01-15T02:54:21.197Z,7.38
2024-01-15T02:55:24.917Z,7.82
2024-01-15T02:56:28.638Z,7.30
2024-01-15T02:57:32.382Z,7.20
2024-01-15T02:58:36.161Z,7.70
2024-01-15T02:59:39.848Z,7.97
2024-01-15T03:00:43.708Z,7.38
2024-01-15T03:01:47.579Z,7.30
2024-01-15T03:02:53.423Z,7.50
2024-01-15T03:03:57.259Z,7.35
2024-01-15T03:05:01.204Z,6.70
2024-01-15T03:06:05.412Z,7.53
2024-01-15T03:07:09.155Z,7.53
2024-01-15T03:08:12.862Z,7.20
2024-01-15T03:09:16.688Z,7.38
2024-01-15T03:10:22.260Z,7.53
2024-01-15T03:11:25.959Z,7.32
2024-01-15T03:12:29.803Z,8.25
2024-01-15T03:13:37.183Z,8.07
2024-01-15T03:14:40.928Z,8.02
2024-01-15T03:15:45.889Z,7.63
2024-01-15T03:16:49.701Z,7.50
2024-01-15T03:17:53.458Z,7.80
2024-01-15T03:18:57.307Z,7.27
2024-01-15T03:20:01.504Z,7.55
2024-01-15T03:21:06.740Z,7.35
2024-01-15T03:22:10.530Z,6.95
2024-01-15T03:23:14.283Z,7.00
2024-01-15T03:24:18.131Z,7.40
2024-01-15T03:25:23.523Z,7.47
2024-01-15T03:26:27.266Z,7.47
2024-01-15T03:27:31.042Z,7.47
2024-01-15T03:28:34.842Z,7.50
2024-01-15T03:29:38.600Z,7.77
2024-01-15T03:30:42.418Z,7.38
2024-01-15T03:31:46.260Z,7.63
2024-01-15T03:32:50.109Z,8.27
2024-01-15T03:33:53.949Z,6.82
2024-01-15T03:34:57.784Z,7.47
2024-01-15T03:36:01.868Z,7.10
2024-01-15T03:37:05.884Z,7.32
2024-01-15T03:38:09.968Z,7.35
2024-01-15T03:39:14.309Z,6.80
2024-01-15T03:40:21.289Z,6.60
2024-01-15T03:41:28.667Z,6.80
2024-01-15T03:42:32.560Z,7.10
2024-01-15T03:43:36.313Z,7.30
2024-01-15T03:44:40.087Z,7.97
2024-01-15T03:45:43.902Z,7.87
2024-01-15T03:46:47.607Z,7.43
2024-01-15T03:47:51.622Z,7.20
2024-01-15T03:48:55.644Z,6.85
2024-01-15T03:49:59.550Z,7.25
2024-01-15T03:51:03.286Z,7.60
2024-01-15T03:52:07.633Z,6.95
2024-01-15T03:53:11.358Z,6.82
2024-01-15T03:54:16.537Z,7.20
2024-01-15T03:55:21.370Z,7.55
2024-01-15T03:56:25.221Z,6.90
2024-01-15T03:57:30.578Z,7.60
2024-01-15T03:58:34.321Z,8.90
2024-01-15T03:59:38.062Z,7.57
2024-01-15T04:00:41.908Z,8.65
2024-01-15T04:01:51.428Z,7.30
2024-01-15T04:02:55.175Z,7.63
2024-01-15T04:03:58.961Z,7.70
2024-01-15T04:05:02.760Z,7.13
2024-01-15T04:06:07.186Z,7.40
2024-01-15T04:07:11.215Z,8.20
2024-01-15T04:08:15.152Z,8.10
2024-01-15T04:09:19.013Z,8.20
2024-01-15T04:10:22.865Z,7.47
2024-01-15T04:11:26.613Z,7.43
2024-01-15T04:12:32.152Z,8.03
2024-01-15T04:13:35.932Z,6.82
2024-01-15T04:14:39.640Z,7.80
2024-01-15T04:15:43.524Z,8.32
2024-01-15T04:16:47.267Z,7.70
2024-01-15T04:17:51.089Z,7.30
2024-01-15T04:18:54.887Z,8.38
2024-01-15T04:19:58.782Z,7.63
2024-01-15T04:21:02.584Z,8.80
2024-01-15T04:22:06.521Z,7.63
2024-01-15T04:23:10.368Z,7.97
2024-01-15T04:24:14.252Z,7.97
2024-01-15T04:25:18.129Z,8.77
2024-01-15T04:26:21.553Z,7.88
2024-01-15T04:27:25.408Z,7.97
2024-01-15T04:28:30.948Z,8.53
2024-01-15T04:29:36.487Z,8.27
2024-01-15T04:30:41.663Z,8.50
2024-01-15T04:31:45.538Z,8.27
2024-01-15T04:32:49.433Z,8.02
2024-01-15T04:33:53.354Z,7.60
2024-01-15T04:34:57.973Z,8.77
2024-01-15T04:36:04.703Z,8.80
2024-01-15T04:37:08.391Z,8.18
2024-01-15T04:38:12.054Z,8.05
2024-01-15T04:39:15.909Z,8.47
2024-01-15T04:40:19.727Z,8.52
2024-01-15T04:41:23.547Z,8.40
2024-01-15T04:42:27.330Z,7.90
2024-01-15T04:43:32.725Z,8.20
2024-01-15T04:44:37.045Z,8.67
2024-01-15T04:45:40.822Z,8.93
2024-01-15T04:46:44.557Z,8.00
2024-01-15T04:47:48.299Z,7.07
2024-01-15T04:48:52.127Z,7.28
2024-01-15T04:49:56.094Z,8.20
2024-01-15T04:50:59.861Z,7.72
2024-01-15T04:52:03.673Z,8.73
2024-01-15T04:53:09.134Z,7.15
2024-01-15T04:54:14.398Z,7.75
2024-01-15T04:55:18.249Z,7.93
2024-01-15T04:56:22.005Z,7.55
2024-01-15T04:57:25.773Z,7.18
2024-01-15T04:58:31.206Z,7.80
2024-01-15T04:59:34.948Z,7.97
2024-01-15T05:00:38.721Z,7.67
2024-01-15T05:01:42.624Z,7.30
2024-01-15T05:02:46.509Z,8.25
2024-01-15T05:03:50.441Z,8.25
2024-01-15T05:04:54.229Z,7.78
2024-01-15T05:05:58.133Z,8.33
2024-01-15T05:07:02.017Z,8.75
2024-01-15T05:08:06.492Z,8.27
2024-01-15T05:09:10.235Z,8.52
2024-01-15T05:10:14.091Z,8.00
2024-01-15T05:11:17.971Z,7.30
2024-01-15T05:12:21.768Z,6.80
2024-01-15T05:13:25.614Z,7.40
2024-01-15T05:14:31.182Z,7.38
2024-01-15T05:15:35.039Z,7.32
2024-01-15T05:16:41.102Z,6.90
2024-01-15T05:17:44.952Z,6.40
2024-01-15T05:18:48.864Z,6.57
2024-01-15T05:19:52.967Z,6.63
2024-01-15T05:20:56.768Z,6.78
2024-01-15T05:22:00.555Z,6.97
2024-01-15T05:23:04.362Z,6.50
2024-01-15T05:24:08.326Z,6.55
2024-01-15T05:25:12.084Z,6.28
2024-01-15T05:26:15.895Z,6.70
2024-01-15T05:27:19.770Z,6.30
2024-01-15T05:28:23.568Z,6.60
2024-01-15T05:29:27.386Z,6.38
2024-01-15T05:30:32.863Z,6.55
2024-01-15T05:31:38.607Z,6.93
2024-01-15T05:32:42.699Z,6.70
2024-01-15T05:33:46.667Z,6.63
2024-01-15T05:34:50.592Z,6.15
2024-01-15T05:35:54.404Z,5.97
2024-01-15T05:36:58.210Z,6.53
2024-01-15T05:38:02.070Z,6.17
2024-01-15T05:39:05.921Z,6.63
2024-01-15T05:40:10.441Z,6.25
2024-01-15T05:41:14.153Z,6.25
2024-01-15T05:42:17.904Z,7.03
2024-01-15T05:43:21.756Z,5.87
2024-01-15T05:44:25.432Z,6.72
2024-01-15T05:45:32.323Z,6.25
2024-01-15T05:46:36.098Z,5.95
2024-01-15T05:47:39.935Z,6.45
2024-01-15T05:48:44.021Z,6.00
2024-01-15T05:49:47.905Z,6.35
2024-01-15T05:50:51.745Z,6.22
2024-01-15T05:51:55.496Z,5.82
2024-01-15T05:52:59.295Z,6.32
2024-01-15T05:54:03.267Z,6.67
2024-01-15T05:55:07.565Z,6.30
2024-01-15T05:56:12.461Z,6.30
2024-01-15T05:57:16.307Z,5.88
2024-01-15T05:58:20.050Z,5.93
2024-01-15T05:59:23.954Z,5.93
2024-01-15T06:00:27.795Z,6.40
2024-01-15T06:01:33.364Z,6.65
2024-01-15T06:02:37.181Z,6.30
2024-01-15T06:03:41.163Z,5.80
2024-01-15T06:04:45.075Z,6.30
2024-01-15T06:05:48.883Z,6.47
2024-01-15T06:06:52.673Z,6.03
2024-01-15T06:07:56.533Z,5.90
2024-01-15T06:09:00.248Z,6.07
2024-01-15T06:10:04.120Z,5.90
2024-01-15T06:11:08.806Z,6.38
2024-01-15T06:12:12.565Z,5.80
2024-01-15T06:13:16.323Z,6.15
2024-01-15T06:14:20.063Z,6.40
2024-01-15T06:15:24.095Z,6.00
2024-01-15T06:16:27.958Z,6.05
2024-01-15T06:17:33.370Z,5.78
2024-01-15T06:18:37.248Z,6.10
2024-01-15T06:19:41.185Z,5.97
2024-01-15T06:20:45.085Z,6.33
2024-01-15T06:21:48.874Z,6.30
2024-01-15T06:22:52.589Z,5.72
2024-01-15T06:23:56.313Z,5.90
2024-01-15T06:25:00.510Z,6.03
2024-01-15T06:26:04.259Z,5.90
2024-01-15T06:27:08.090Z,6.03
2024-01-15T06:28:12.102Z,5.93
2024-01-15T06:29:15.838Z,5.97
2024-01-15T06:30:19.844Z,6.25
2024-01-15T06:31:23.757Z,6.00
2024-01-15T06:32:27.685Z,5.78
2024-01-15T06:33:33.290Z,5.70
2024-01-15T06:34:37.106Z,5.57
2024-01-15T06:35:40.938Z,5.70
2024-01-15T06:36:44.986Z,5.77
2024-01-15T06:37:48.784Z,6.15
2024-01-15T06:38:52.546Z,6.10
2024-01-15T06:39:56.337Z,6.07
2024-01-15T06:41:00.096Z,6.20
2024-01-15T06:42:03.861Z,6.40
2024-01-15T06:43:07.611Z,5.97
2024-01-15T06:44:11.411Z,5.88
2024-01-15T06:45:15.231Z,6.43
2024-01-15T06:46:22.967Z,5.55
2024-01-15T06:47:26.786Z,5.50
2024-01-15T06:48:32.283Z,6.20
2024-01-15T06:49:36.202Z,5.85
2024-01-15T06:50:39.898Z,5.53
2024-01-15T06:51:44.715Z,5.85
2024-01-15T06:52:49.491Z,6.13
2024-01-15T06:53:53.242Z,5.63
2024-01-15T06:54:57.065Z,5.55
2024-01-15T06:56:00.913Z,5.88
2024-01-15T06:57:04.882Z,6.03
2024-01-15T06:58:08.586Z,5.80
2024-01-15T06:59:12.440Z,6.47
2024-01-15T07:00:17.453Z,6.00
2024-01-15T07:01:21.425Z,6.10
2024-01-15T07:02:25.460Z,5.57
2024-01-15T07:03:29.295Z,6.40
2024-01-15T07:04:34.723Z,5.57
2024-01-15T07:05:38.707Z,6.07
2024-01-15T07:06:42.701Z,5.85
2024-01-15T07:07:52.610Z,5.88
2024-01-15T20:02:17.430Z,13.67
2024-01-15T20:03:21.424Z,11.73
2024-01-15T20:04:25.181Z,11.25
2024-01-15T20:05:28.975Z,11.73
2024-01-15T20:06:32.970Z,12.60
2024-01-15T20:07:36.949Z,10.80
2024-01-15T20:08:40.634Z,11.90
2024-01-15T20:09:44.466Z,12.30
2024-01-15T20:10:48.237Z,13.40
2024-01-15T20:11:52.044Z,13.15
2024-01-15T20:12:55.788Z,13.70
2024-01-15T20:13:59.745Z,12.82
2024-01-15T20:15:03.633Z,14.02
2024-01-15T20:16:11.749Z,13.30
2024-01-15T20:17:17.392Z,15.18
2024-01-15T20:18:21.292Z,13.60
2024-01-15T20:19:25.297Z,13.70
2024-01-15T20:20:29.156Z,14.20
2024-01-15T20:21:34.184Z,14.48
2024-01-15T20:22:37.827Z,12.80
2024-01-15T20:24:47.980Z,14.32
2024-01-15T20:25:51.769Z,14.35
2024-01-15T20:26:55.498Z,14.38
2024-01-15T20:27:59.194Z,14.95
2024-01-15T20:29:02.995Z,17.27
2024-01-15T20:30:07.855Z,15.43
2024-01-15T20:31:12.092Z,16.05
2024-01-15T20:32:40.019Z,14.82
2024-01-15T20:33:44.174Z,15.93
2024-01-15T20:34:48.156Z,15.00
2024-01-15T20:35:52.094Z,15.27
2024-01-15T20:36:56.058Z,15.80
2024-01-15T20:38:00.078Z,16.45
2024-01-15T20:39:03.858Z,15.68
2024-01-15T20:40:18.578Z,16.07
2024-01-15T20:41:22.388Z,15.65
2024-01-15T20:42:26.939Z,14.95
2024-01-15T20:43:30.759Z,15.90
2024-01-15T20:44:34.528Z,16.77
2024-01-15T20:45:38.584Z,16.30
2024-01-15T20:46:42.448Z,19.02
2024-01-15T20:47:47.971Z,16.42
2024-01-15T20:48:51.963Z,17.45
2024-01-15T20:49:55.735Z,16.65
2024-01-15T20:50:59.731Z,16.37
2024-01-15T20:52:03.674Z,15.50
2024-01-15T20:53:07.433Z,16.90
2024-01-15T20:54:11.265Z,16.60
2024-01-15T20:55:14.972Z,17.73
2024-01-15T20:56:18.760Z,21.13
2024-01-15T20:57:22.606Z,16.95
2024-01-15T20:58:26.339Z,17.27
2024-01-15T20:59:30.357Z,16.90
2024-01-15T21:00:34.115Z,17.00
2024-01-15T21:01:37.874Z,16.93
2024-01-15T21:02:41.647Z,17.30
2024-01-15T21:03:47.169Z,17.60
2024-01-15T21:04:50.985Z,17.05
2024-01-15T21:05:54.826Z,16.73
2024-01-15T21:06:58.676Z,17.30
2024-01-15T21:08:02.380Z,17.02
2024-01-15T21:09:13.311Z,18.02
2024-01-15T21:10:17.072Z,19.20
2024-01-15T21:11:20.867Z,16.50
2024-01-15T21:12:45.212Z,16.83
2024-01-15T21:14:33.725Z,16.60
2024-01-15T21:15:37.608Z,16.50
2024-01-15T21:16:41.354Z,16.40
2024-01-15T21:17:46.711Z,16.83
2024-01-15T21:18:54.101Z,16.80
2024-01-15T21:20:08.972Z,16.95
2024-01-15T21:21:12.868Z,20.13
2024-01-15T21:22:16.637Z,17.02
2024-01-15T21:23:20.426Z,19.40
2024-01-15T21:24:24.135Z,18.23
2024-01-15T21:25:28.050Z,17.52
2024-01-15T21:26:31.828Z,18.17
2024-01-15T21:27:35.537Z,18.48
2024-01-15T21:28:39.331Z,16.75
2024-01-15T21:29:43.145Z,17.33
2024-01-15T21:30:48.467Z,18.70
2024-01-15T21:31:52.408Z,18.00
2024-01-15T21:32:56.164Z,19.35
2024-01-15T21:34:18.962Z,18.92
2024-01-15T21:35:34.478Z,17.50
2024-01-15T21:36:39.320Z,17.17
2024-01-15T21:37:43.353Z,16.90
2024-01-15T21:38:47.213Z,17.10
2024-01-15T21:39:51.051Z,16.58
2024-01-15T21:40:54.796Z,17.60
2024-01-15T21:41:58.962Z,17.65
2024-01-15T21:43:02.859Z,19.05
2024-01-15T21:44:06.813Z,16.67
2024-01-15T21:45:11.277Z,18.33
2024-01-15T21:46:15.101Z,17.70
2024-01-15T21:47:18.881Z,17.50
2024-01-15T21:48:22.868Z,19.02
2024-01-15T21:49:28.836Z,18.90
2024-01-15T21:50:32.597Z,16.70
2024-01-15T21:51:36.702Z,16.97
2024-01-15T21:52:40.437Z,17.75
2024-01-15T21:53:44.328Z,17.55
2024-01-15T21:54:48.134Z,17.67
2024-01-15T21:55:51.846Z,17.23
2024-01-15T21:56:55.529Z,17.00
2024-01-15T21:57:59.236Z,17.05
2024-01-15T21:59:03.089Z,17.15
2024-01-15T22:00:07.803Z,16.33
2024-01-15T22:01:11.715Z,16.50
2024-01-15T22:02:27.811Z,15.90
2024-01-15T22:03:31.749Z,16.35
2024-01-15T22:04:37.406Z,15.73
2024-01-15T22:05:41.303Z,15.52
2024-01-15T22:06:45.180Z,15.95
2024-01-15T22:07:48.946Z,15.70
2024-01-15T22:08:52.662Z,16.33
2024-01-15T22:09:56.503Z,17.00
2024-01-15T22:11:00.257Z,16.13
2024-01-15T22:12:05.443Z,15.10
2024-01-15T22:13:09.241Z,16.10
2024-01-15T22:14:13.002Z,14.43
2024-01-15T22:15:16.764Z,16.20
2024-01-15T22:16:20.453Z,15.10
2024-01-15T22:17:24.280Z,14.95
2024-01-15T22:18:29.210Z,15.70
2024-01-15T22:19:32.988Z,15.40
2024-01-15T22:20:38.395Z,15.30
2024-01-15T22:21:44.419Z,14.43
2024-01-15T22:22:48.157Z,14.40
2024-01-15T22:23:51.929Z,13.83
2024-01-15T22:24:55.649Z,15.20
2024-01-15T22:25:59.458Z,13.45
2024-01-15T22:27:05.613Z,14.05
2024-01-15T22:28:10.366Z,14.13
2024-01-15T22:29:14.258Z,14.23
2024-01-15T22:30:18.171Z,15.02
2024-01-15T22:31:21.981Z,13.35
2024-01-15T22:32:27.119Z,13.77
2024-01-15T22:33:32.368Z,12.73
2024-01-15T22:34:36.332Z,13.70
2024-01-15T22:35:41.810Z,14.48
2024-01-15T22:36:45.664Z,13.32
2024-01-15T22:37:49.972Z,13.35
2024-01-15T22:38:53.962Z,13.05
2024-01-15T22:39:57.779Z,13.27
2024-01-15T22:41:01.589Z,13.05
2024-01-15T22:42:05.836Z,11.93
2024-01-15T22:43:09.570Z,11.88
2024-01-15T22:44:13.383Z,12.10
2024-01-15T22:45:17.888Z,11.20
2024-01-15T22:46:21.922Z,13.02
2024-01-15T22:47:25.926Z,12.38
2024-01-15T22:48:29.991Z,11.52
2024-01-15T22:49:33.792Z,11.93
2024-01-15T22:50:37.646Z,11.67
2024-01-15T22:51:43.100Z,11.45
2024-01-15T22:52:46.935Z,11.63
2024-01-15T22:53:51.598Z,11.55
2024-01-15T22:54:56.101Z,11.20
2024-01-15T22:56:02.743Z,12.03
2024-01-15T22:57:06.793Z,11.60
2024-01-15T22:58:10.658Z,10.57
2024-01-15T22:59:14.569Z,11.38
2024-01-15T23:00:18.935Z,11.95
2024-01-15T23:01:23.311Z,12.13
2024-01-15T23:02:27.126Z,11.45
2024-01-15T23:03:31.137Z,11.23
2024-01-15T23:04:34.866Z,11.15
2024-01-15T23:05:39.183Z,11.68
2024-01-15T23:06:45.011Z,11.10
2024-01-15T23:07:50.532Z,10.60
2024-01-15T23:08:54.365Z,10.73
2024-01-15T23:09:58.040Z,10.82
2024-01-15T23:11:01.814Z,11.45
2024-01-15T23:12:06.369Z,10.57
2024-01-15T23:13:10.206Z,10.98
2024-01-15T23:14:14.065Z,10.57
2024-01-15T23:15:17.918Z,12.32
2024-01-15T23:16:21.688Z,11.02
2024-01-15T23:17:25.642Z,10.77
2024-01-15T23:18:29.482Z,11.35
2024-01-15T23:19:33.331Z,11.65
2024-01-15T23:20:37.065Z,11.00
2024-01-15T23:21:40.833Z,10.90
2024-01-15T23:22:46.280Z,11.63
2024-01-15T23:23:50.001Z,12.35
2024-01-15T23:24:53.772Z,12.48
2024-01-15T23:25:57.549Z,12.68
2024-01-15T23:27:01.301Z,12.45
2024-01-15T23:28:05.268Z,12.57
2024-01-15T23:29:09.113Z,12.25
2024-01-15T23:30:13.338Z,12.57
2024-01-15T23:31:20.109Z,12.82
2024-01-15T23:32:23.904Z,11.38
2024-01-15T23:33:27.729Z,11.70
2024-01-15T23:34:31.470Z,11.65
2024-01-15T23:35:35.258Z,12.25
2024-01-15T23:36:39.062Z,12.32
2024-01-15T23:37:42.764Z,11.18
2024-01-15T23:38:48.144Z,11.27
2024-01-15T23:39:52.896Z,11.98
2024-01-15T23:40:56.574Z,12.98
2024-01-15T23:42:00.435Z,11.55
2024-01-15T23:43:04.242Z,11.75
2024-01-15T23:44:08.024Z,12.00
2024-01-15T23:45:11.894Z,11.75
2024-01-15T23:46:16.135Z,12.88
2024-01-15T23:47:19.830Z,11.93
2024-01-15T23:48:23.849Z,12.38
2024-01-15T23:49:27.765Z,13.17
2024-01-15T23:50:31.517Z,11.90
2024-01-15T23:51:35.180Z,11.55
2024-01-15T23:52:38.866Z,11.70
2024-01-15T23:53:42.665Z,12.27
2024-01-15T23:54:48.120Z,13.40
2024-01-15T23:55:51.854Z,10.77
2024-01-15T23:56:55.592Z,13.48
2024-01-15T23:57:59.535Z,12.05
2024-01-15T23:59:03.398Z,12.43
